sensor_id;sensor_type;location;lat;lon;timestamp;pressure;altitude;pressure_sealevel;temperature;humidity
42105;BME280;68365;51.472;5.712;2023-03-23T00:00:10;100082.25;;;15.53;100.00
42105;BME280;68365;51.472;5.712;2023-03-23T00:02:36;100089.66;;;15.56;100.00
42105;BME280;68365;51.472;5.712;2023-03-23T00:05:06;100080.41;;;15.54;100.00
42105;BME280;68365;51.472;5.712;2023-03-23T00:07:34;100074.41;;;15.53;100.00
42105;BME280;68365;51.472;5.712;2023-03-23T00:09:59;100088.47;;;15.52;100.00
42105;BME280;68365;51.472;5.712;2023-03-23T00:12:30;100095.53;;;15.52;100.00
42105;BME280;68365;51.472;5.712;2023-03-23T00:15:06;100077.41;;;15.50;100.00
42105;BME280;68365;51.472;5.712;2023-03-23T00:17:33;100048.03;;;15.48;100.00
42105;BME280;68365;51.472;5.712;2023-03-23T00:20:03;100070.59;;;15.49;100.00
42105;BME280;68365;51.472;5.712;2023-03-23T00:22:31;100089.50;;;15.51;100.00
42105;BME280;68365;51.472;5.712;2023-03-23T00:25:06;100084.06;;;15.53;100.00
42105;BME280;68365;51.472;5.712;2023-03-23T00:27:34;100073.78;;;15.51;100.00
42105;BME280;68365;51.472;5.712;2023-03-23T00:30:00;100069.78;;;15.48;100.00
42105;BME280;68365;51.472;5.712;2023-03-23T00:32:26;100075.41;;;15.45;100.00
42105;BME280;68365;51.472;5.712;2023-03-23T00:34:53;100077.03;;;15.46;100.00
42105;BME280;68365;51.472;5.712;2023-03-23T00:37:19;100080.25;;;15.48;100.00
42105;BME280;68365;51.472;5.712;2023-03-23T00:39:45;100067.56;;;15.45;100.00
42105;BME280;68365;51.472;5.712;2023-03-23T00:42:14;100059.53;;;15.47;100.00
42105;BME280;68365;51.472;5.712;2023-03-23T00:44:40;100070.19;;;15.45;100.00
42105;BME280;68365;51.472;5.712;2023-03-23T00:47:06;100071.00;;;15.46;100.00
42105;BME280;68365;51.472;5.712;2023-03-23T00:49:35;100068.00;;;15.42;100.00
42105;BME280;68365;51.472;5.712;2023-03-23T00:52:02;100077.25;;;15.45;100.00
42105;BME280;68365;51.472;5.712;2023-03-23T00:54:29;100059.94;;;15.44;100.00
42105;BME280;68365;51.472;5.712;2023-03-23T00:56:55;100056.72;;;15.42;100.00
42105;BME280;68365;51.472;5.712;2023-03-23T00:59:22;100053.91;;;15.43;100.00
42105;BME280;68365;51.472;5.712;2023-03-23T01:01:49;100066.00;;;15.44;100.00
42105;BME280;68365;51.472;5.712;2023-03-23T01:04:16;100059.13;;;15.43;100.00
42105;BME280;68365;51.472;5.712;2023-03-23T01:06:44;100062.97;;;15.41;100.00
42105;BME280;68365;51.472;5.712;2023-03-23T01:09:15;100051.50;;;15.42;100.00
42105;BME280;68365;51.472;5.712;2023-03-23T01:11:43;100063.56;;;15.43;100.00
42105;BME280;68365;51.472;5.712;2023-03-23T01:14:11;100065.59;;;15.41;100.00
42105;BME280;68365;51.472;5.712;2023-03-23T01:16:37;100063.97;;;15.40;100.00
42105;BME280;68365;51.472;5.712;2023-03-23T01:19:03;100069.19;;;15.40;100.00
42105;BME280;68365;51.472;5.712;2023-03-23T01:21:29;100059.56;;;15.40;100.00
42105;BME280;68365;51.472;5.712;2023-03-23T01:23:55;100033.41;;;15.40;100.00
42105;BME280;68365;51.472;5.712;2023-03-23T01:26:24;100025.97;;;15.37;100.00
42105;BME280;68365;51.472;5.712;2023-03-23T01:28:50;100029.19;;;15.39;100.00
42105;BME280;68365;51.472;5.712;2023-03-23T01:31:19;100024.16;;;15.38;100.00
42105;BME280;68365;51.472;5.712;2023-03-23T01:33:46;100033.41;;;15.40;100.00
42105;BME280;68365;51.472;5.712;2023-03-23T01:36:19;100026.16;;;15.42;100.00
42105;BME280;68365;51.472;5.712;2023-03-23T01:38:49;100021.13;;;15.41;100.00
42105;BME280;68365;51.472;5.712;2023-03-23T01:41:17;100006.66;;;15.38;100.00
42105;BME280;68365;51.472;5.712;2023-03-23T01:46:42;100026.75;;;15.38;100.00
42105;BME280;68365;51.472;5.712;2023-03-23T01:49:17;100017.31;;;15.37;100.00
42105;BME280;68365;51.472;5.712;2023-03-23T01:51:56;100019.31;;;15.41;100.00
42105;BME280;68365;51.472;5.712;2023-03-23T01:54:24;100020.53;;;15.39;100.00
42105;BME280;68365;51.472;5.712;2023-03-23T01:56:59;100028.19;;;15.40;100.00
42105;BME280;68365;51.472;5.712;2023-03-23T01:59:25;100021.13;;;15.41;100.00
42105;BME280;68365;51.472;5.712;2023-03-23T02:01:54;100030.78;;;15.40;100.00
42105;BME280;68365;51.472;5.712;2023-03-23T02:04:22;100019.75;;;15.38;100.00
42105;BME280;68365;51.472;5.712;2023-03-23T02:06:49;100006.66;;;15.38;100.00
42105;BME280;68365;51.472;5.712;2023-03-23T02:09:16;100008.47;;;15.38;100.00
42105;BME280;68365;51.472;5.712;2023-03-23T02:11:46;100012.28;;;15.35;100.00
42105;BME280;68365;51.472;5.712;2023-03-23T02:14:13;99999.81;;;15.37;100.00
42105;BME280;68365;51.472;5.712;2023-03-23T02:20:01;99982.91;;;15.40;100.00
42105;BME280;68365;51.472;5.712;2023-03-23T02:36:08;99963.63;;;15.34;100.00
42105;BME280;68365;51.472;5.712;2023-03-23T02:38:10;99973.28;;;15.34;100.00
42105;BME280;68365;51.472;5.712;2023-03-23T02:40:49;99974.69;;;15.36;100.00
42105;BME280;68365;51.472;5.712;2023-03-23T02:43:21;99970.66;;;15.34;100.00
42105;BME280;68365;51.472;5.712;2023-03-23T02:45:48;99961.81;;;15.35;100.00
42105;BME280;68365;51.472;5.712;2023-03-23T02:48:18;99949.78;;;15.27;100.00
42105;BME280;68365;51.472;5.712;2023-03-23T02:50:49;99953.59;;;15.31;100.00
42105;BME280;68365;51.472;5.712;2023-03-23T02:53:21;99961.22;;;15.33;100.00
42105;BME280;68365;51.472;5.712;2023-03-23T02:55:49;99951.41;;;15.28;100.00
42105;BME280;68365;51.472;5.712;2023-03-23T02:58:19;99956.59;;;15.35;100.00
42105;BME280;68365;51.472;5.712;2023-03-23T03:00:45;99954.59;;;15.30;100.00
42105;BME280;68365;51.472;5.712;2023-03-23T03:03:19;99968.88;;;15.34;100.00
42105;BME280;68365;51.472;5.712;2023-03-23T03:06:36;99961.81;;;15.35;100.00
42105;BME280;68365;51.472;5.712;2023-03-23T03:11:46;99964.44;;;15.35;100.00
42105;BME280;68365;51.472;5.712;2023-03-23T03:14:31;99963.63;;;15.34;100.00
42105;BME280;68365;51.472;5.712;2023-03-23T03:17:30;99966.47;;;15.33;100.00
42105;BME280;68365;51.472;5.712;2023-03-23T03:20:01;99962.22;;;15.32;100.00
42105;BME280;68365;51.472;5.712;2023-03-23T03:22:38;99967.06;;;15.35;100.00
42105;BME280;68365;51.472;5.712;2023-03-23T03:25:09;99965.44;;;15.34;100.00
42105;BME280;68365;51.472;5.712;2023-03-23T03:27:35;99967.44;;;15.32;100.00
42105;BME280;68365;51.472;5.712;2023-03-23T03:30:04;99959.00;;;15.29;100.00
42105;BME280;68365;51.472;5.712;2023-03-23T03:32:42;99960.63;;;15.31;100.00
42105;BME280;68365;51.472;5.712;2023-03-23T03:35:09;99961.22;;;15.33;100.00
42105;BME280;68365;51.472;5.712;2023-03-23T03:37:38;99959.00;;;15.29;100.00
42105;BME280;68365;51.472;5.712;2023-03-23T03:40:17;99964.84;;;15.32;100.00
42105;BME280;68365;51.472;5.712;2023-03-23T03:42:44;99972.69;;;15.32;100.00
42105;BME280;68365;51.472;5.712;2023-03-23T03:45:18;99956.84;;;15.26;100.00
42105;BME280;68365;51.472;5.712;2023-03-23T03:47:44;99965.66;;;15.32;100.00
42105;BME280;68365;51.472;5.712;2023-03-23T03:50:10;99954.81;;;15.28;100.00
42105;BME280;68365;51.472;5.712;2023-03-23T03:52:37;99971.09;;;15.31;100.00
42105;BME280;68365;51.472;5.712;2023-03-23T03:55:05;99967.25;;;15.33;100.00
42105;BME280;68365;51.472;5.712;2023-03-23T03:57:33;99963.84;;;15.33;100.00
42105;BME280;68365;51.472;5.712;2023-03-23T03:59:58;99959.25;;;15.28;100.00
42105;BME280;68365;51.472;5.712;2023-03-23T04:02:24;99963.66;;;15.27;100.00
42105;BME280;68365;51.472;5.712;2023-03-23T04:04:51;99970.31;;;15.30;100.00
42105;BME280;68365;51.472;5.712;2023-03-23T04:07:19;99970.88;;;15.32;100.00
42105;BME280;68365;51.472;5.712;2023-03-23T04:09:46;99971.09;;;15.31;100.00
42105;BME280;68365;51.472;5.712;2023-03-23T04:12:16;99972.47;;;15.33;100.00
42105;BME280;68365;51.472;5.712;2023-03-23T04:14:42;99970.50;;;15.28;100.00
42105;BME280;68365;51.472;5.712;2023-03-23T04:17:08;99975.13;;;15.26;100.00
42105;BME280;68365;51.472;5.712;2023-03-23T04:19:37;99974.50;;;15.31;100.00
42105;BME280;68365;51.472;5.712;2023-03-23T04:22:05;99984.16;;;15.31;100.00
42105;BME280;68365;51.472;5.712;2023-03-23T04:24:30;99985.78;;;15.25;100.00
42105;BME280;68365;51.472;5.712;2023-03-23T04:26:59;99994.44;;;15.32;100.00
42105;BME280;68365;51.472;5.712;2023-03-23T04:29:26;99989.41;;;15.31;100.00
42105;BME280;68365;51.472;5.712;2023-03-23T04:31:52;100003.25;;;15.31;100.00
42105;BME280;68365;51.472;5.712;2023-03-23T04:34:18;100008.50;;;15.31;100.00
42105;BME280;68365;51.472;5.712;2023-03-23T04:36:45;99997.03;;;15.25;100.00
42105;BME280;68365;51.472;5.712;2023-03-23T04:39:13;100004.28;;;15.30;100.00
42105;BME280;68365;51.472;5.712;2023-03-23T04:41:39;100011.09;;;15.31;100.00
42105;BME280;68365;51.472;5.712;2023-03-23T04:44:07;100011.53;;;15.28;100.00
42105;BME280;68365;51.472;5.712;2023-03-23T04:46:33;100012.13;;;15.30;100.00
42105;BME280;68365;51.472;5.712;2023-03-23T04:48:59;100017.38;;;15.30;100.00
42105;BME280;68365;51.472;5.712;2023-03-23T04:51:26;100019.75;;;15.32;100.00
42105;BME280;68365;51.472;5.712;2023-03-23T04:53:55;100017.13;;;15.32;100.00
42105;BME280;68365;51.472;5.712;2023-03-23T04:56:21;100010.50;;;15.29;100.00
42105;BME280;68365;51.472;5.712;2023-03-23T04:58:47;100009.13;;;15.26;100.00
42105;BME280;68365;51.472;5.712;2023-03-23T05:01:13;100008.69;;;15.29;100.00
42105;BME280;68365;51.472;5.712;2023-03-23T05:03:40;100014.50;;;15.32;100.00
42105;BME280;68365;51.472;5.712;2023-03-23T05:06:07;100018.16;;;15.31;100.00
42105;BME280;68365;51.472;5.712;2023-03-23T05:08:33;100012.72;;;15.32;100.00
42105;BME280;68365;51.472;5.712;2023-03-23T05:11:00;100003.69;;;15.28;100.00
42105;BME280;68365;51.472;5.712;2023-03-23T05:13:29;100018.16;;;15.31;100.00
42105;BME280;68365;51.472;5.712;2023-03-23T05:15:55;100002.28;;;15.25;100.00
42105;BME280;68365;51.472;5.712;2023-03-23T05:18:21;100028.63;;;15.31;100.00
42105;BME280;68365;51.472;5.712;2023-03-23T05:20:47;100027.81;;;15.30;100.00
42105;BME280;68365;51.472;5.712;2023-03-23T05:23:14;100027.59;;;15.32;100.00
42105;BME280;68365;51.472;5.712;2023-03-23T05:25:40;100010.13;;;15.25;100.00
42105;BME280;68365;51.472;5.712;2023-03-23T05:28:10;100017.38;;;15.30;100.00
42105;BME280;68365;51.472;5.712;2023-03-23T05:30:38;100025.22;;;15.30;100.00
42105;BME280;68365;51.472;5.712;2023-03-23T05:33:07;100025.41;;;15.28;100.00
42105;BME280;68365;51.472;5.712;2023-03-23T05:35:33;100032.03;;;15.31;100.00
42105;BME280;68365;51.472;5.712;2023-03-23T05:37:59;100032.22;;;15.29;100.00
42105;BME280;68365;51.472;5.712;2023-03-23T05:40:25;100031.44;;;15.29;100.00
42105;BME280;68365;51.472;5.712;2023-03-23T05:42:52;100027.22;;;15.28;100.00
42105;BME280;68365;51.472;5.712;2023-03-23T05:45:18;100032.22;;;15.29;100.00
42105;BME280;68365;51.472;5.712;2023-03-23T05:47:46;100033.25;;;15.28;100.00
42105;BME280;68365;51.472;5.712;2023-03-23T05:50:12;100015.56;;;15.24;100.00
42105;BME280;68365;51.472;5.712;2023-03-23T05:52:39;100012.53;;;15.27;100.00
42105;BME280;68365;51.472;5.712;2023-03-23T05:55:06;100027.00;;;15.29;100.00
42105;BME280;68365;51.472;5.712;2023-03-23T05:57:33;100021.41;;;15.26;100.00
42105;BME280;68365;51.472;5.712;2023-03-23T05:59:59;100031.84;;;15.26;100.00
42105;BME280;68365;51.472;5.712;2023-03-23T06:02:31;100018.19;;;15.24;100.00
42105;BME280;68365;51.472;5.712;2023-03-23T06:04:57;100023.19;;;15.25;100.00
42105;BME280;68365;51.472;5.712;2023-03-23T06:07:24;100024.81;;;15.26;100.00
42105;BME280;68365;51.472;5.712;2023-03-23T06:09:52;100024.81;;;15.26;100.00
42105;BME280;68365;51.472;5.712;2023-03-23T06:12:18;100028.03;;;15.28;100.00
42105;BME280;68365;51.472;5.712;2023-03-23T06:14:49;100035.06;;;15.28;100.00
42105;BME280;68365;51.472;5.712;2023-03-23T06:17:15;100020.56;;;15.25;100.00
42105;BME280;68365;51.472;5.712;2023-03-23T06:19:43;100031.44;;;15.29;100.00
42105;BME280;68365;51.472;5.712;2023-03-23T06:22:09;100032.06;;;15.24;100.00
42105;BME280;68365;51.472;5.712;2023-03-23T06:24:36;100039.47;;;15.27;100.00
42105;BME280;68365;51.472;5.712;2023-03-23T06:27:02;100048.34;;;15.26;100.00
42105;BME280;68365;51.472;5.712;2023-03-23T06:29:30;100055.38;;;15.26;100.00
42105;BME280;68365;51.472;5.712;2023-03-23T06:32:00;100051.56;;;15.28;100.00
42105;BME280;68365;51.472;5.712;2023-03-23T06:34:28;100053.97;;;15.23;100.00
42105;BME280;68365;51.472;5.712;2023-03-23T06:36:55;100062.41;;;15.25;100.00
42105;BME280;68365;51.472;5.712;2023-03-23T06:39:21;100064.22;;;15.25;100.00
42105;BME280;68365;51.472;5.712;2023-03-23T06:41:48;100065.41;;;15.29;100.00
42105;BME280;68365;51.472;5.712;2023-03-23T06:44:14;100061.41;;;15.26;100.00
42105;BME280;68365;51.472;5.712;2023-03-23T06:46:41;100064.63;;;15.28;100.00
42105;BME280;68365;51.472;5.712;2023-03-23T06:49:08;100076.69;;;15.29;100.00
42105;BME280;68365;51.472;5.712;2023-03-23T06:51:34;100070.25;;;15.32;100.00
42105;BME280;68365;51.472;5.712;2023-03-23T06:54:01;100081.91;;;15.29;100.00
42105;BME280;68365;51.472;5.712;2023-03-23T06:56:27;100075.09;;;15.28;100.00
42105;BME280;68365;51.472;5.712;2023-03-23T06:58:52;100087.13;;;15.29;100.00
42105;BME280;68365;51.472;5.712;2023-03-23T07:01:18;100075.91;;;15.22;100.00
42105;BME280;68365;51.472;5.712;2023-03-23T07:03:44;100076.50;;;15.24;100.00
42105;BME280;68365;51.472;5.712;2023-03-23T07:06:11;100096.00;;;15.28;100.00
42105;BME280;68365;51.472;5.712;2023-03-23T07:08:37;100086.16;;;15.24;100.00
42105;BME280;68365;51.472;5.712;2023-03-23T07:11:04;100094.38;;;15.27;100.00
42105;BME280;68365;51.472;5.712;2023-03-23T07:13:29;100092.59;;;15.28;100.00
42105;BME280;68365;51.472;5.712;2023-03-23T07:15:56;100087.38;;;15.28;100.00
42105;BME280;68365;51.472;5.712;2023-03-23T07:18:22;100083.53;;;15.31;100.00
42105;BME280;68365;51.472;5.712;2023-03-23T07:20:51;100089.75;;;15.29;100.00
42105;BME280;68365;51.472;5.712;2023-03-23T07:23:18;100080.31;;;15.28;100.00
42105;BME280;68365;51.472;5.712;2023-03-23T07:25:44;100090.38;;;15.25;100.00
42105;BME280;68365;51.472;5.712;2023-03-23T07:28:12;100090.19;;;15.26;100.00
42105;BME280;68365;51.472;5.712;2023-03-23T07:30:38;100092.00;;;15.26;100.00
42105;BME280;68365;51.472;5.712;2023-03-23T07:33:06;100094.16;;;15.36;100.00
42105;BME280;68365;51.472;5.712;2023-03-23T07:35:33;100085.13;;;15.38;100.00
42105;BME280;68365;51.472;5.712;2023-03-23T07:37:59;100097.16;;;15.39;100.00
42105;BME280;68365;51.472;5.712;2023-03-23T07:40:26;100099.19;;;15.37;100.00
42105;BME280;68365;51.472;5.712;2023-03-23T07:42:57;100099.63;;;15.34;100.00
42105;BME280;68365;51.472;5.712;2023-03-23T07:45:23;100098.19;;;15.38;100.00
42105;BME280;68365;51.472;5.712;2023-03-23T07:47:50;100106.63;;;15.40;100.00
42105;BME280;68365;51.472;5.712;2023-03-23T07:50:16;100103.41;;;15.32;100.00
42105;BME280;68365;51.472;5.712;2023-03-23T07:52:44;100109.84;;;15.36;100.00
42105;BME280;68365;51.472;5.712;2023-03-23T07:55:12;100105.00;;;15.39;100.00
42105;BME280;68365;51.472;5.712;2023-03-23T07:57:43;100125.16;;;15.39;100.00
42105;BME280;68365;51.472;5.712;2023-03-23T08:00:10;100208.03;;;15.38;100.00
42105;BME280;68365;51.472;5.712;2023-03-23T08:02:53;100196.97;;;15.36;100.00
42105;BME280;68365;51.472;5.712;2023-03-23T08:05:21;100184.09;;;15.35;100.00
42105;BME280;68365;51.472;5.712;2023-03-23T08:07:48;100182.69;;;15.32;100.00
42105;BME280;68365;51.472;5.712;2023-03-23T08:10:15;100181.06;;;15.31;100.00
42105;BME280;68365;51.472;5.712;2023-03-23T08:12:44;100173.03;;;15.33;100.00
42105;BME280;68365;51.472;5.712;2023-03-23T08:15:12;100172.63;;;15.29;100.00
42105;BME280;68365;51.472;5.712;2023-03-23T08:17:40;100168.59;;;15.33;100.00
42105;BME280;68365;51.472;5.712;2023-03-23T08:20:08;100171.19;;;15.40;100.00
42105;BME280;68365;51.472;5.712;2023-03-23T08:22:42;100181.66;;;15.40;100.00
42105;BME280;68365;51.472;5.712;2023-03-23T08:25:13;100193.13;;;15.39;100.00
42105;BME280;68365;51.472;5.712;2023-03-23T08:27:40;100197.75;;;15.37;100.00
42105;BME280;68365;51.472;5.712;2023-03-23T08:30:17;100194.75;;;15.33;100.00
42105;BME280;68365;51.472;5.712;2023-03-23T08:32:45;100203.63;;;15.32;100.00
42105;BME280;68365;51.472;5.712;2023-03-23T08:35:13;100202.41;;;15.28;100.00
42105;BME280;68365;51.472;5.712;2023-03-23T08:37:41;100213.66;;;15.28;100.00
42105;BME280;68365;51.472;5.712;2023-03-23T08:40:12;100212.28;;;15.26;100.00
42105;BME280;68365;51.472;5.712;2023-03-23T08:42:42;100224.53;;;15.32;100.00
42105;BME280;68365;51.472;5.712;2023-03-23T08:45:12;100217.28;;;15.34;100.00
42105;BME280;68365;51.472;5.712;2023-03-23T08:47:38;100209.44;;;15.34;100.00
42105;BME280;68365;51.472;5.712;2023-03-23T08:50:06;100208.63;;;15.34;100.00
42105;BME280;68365;51.472;5.712;2023-03-23T08:52:32;100204.22;;;15.34;100.00
42105;BME280;68365;51.472;5.712;2023-03-23T08:54:58;100216.28;;;15.35;100.00
42105;BME280;68365;51.472;5.712;2023-03-23T08:57:25;100206.00;;;15.40;100.00
42105;BME280;68365;51.472;5.712;2023-03-23T08:59:52;100220.28;;;15.38;100.00
42105;BME280;68365;51.472;5.712;2023-03-23T09:02:20;100217.47;;;15.33;100.00
42105;BME280;68365;51.472;5.712;2023-03-23T09:04:46;100222.28;;;15.36;100.00
42105;BME280;68365;51.472;5.712;2023-03-23T09:07:13;100211.44;;;15.39;100.00
42105;BME280;68365;51.472;5.712;2023-03-23T09:09:40;100207.00;;;15.39;100.00
42105;BME280;68365;51.472;5.712;2023-03-23T09:12:08;100207.81;;;15.40;100.00
42105;BME280;68365;51.472;5.712;2023-03-23T09:14:35;100196.75;;;15.38;100.00
42105;BME280;68365;51.472;5.712;2023-03-23T09:17:02;100206.63;;;15.42;100.00
42105;BME280;68365;51.472;5.712;2023-03-23T09:19:29;100215.44;;;15.41;100.00
42105;BME280;68365;51.472;5.712;2023-03-23T09:21:55;100210.03;;;15.43;100.00
42105;BME280;68365;51.472;5.712;2023-03-23T09:24:21;100211.44;;;15.45;100.00
42105;BME280;68365;51.472;5.712;2023-03-23T09:26:48;100220.28;;;15.44;100.00
42105;BME280;68365;51.472;5.712;2023-03-23T09:29:14;100218.25;;;15.40;100.00
42105;BME280;68365;51.472;5.712;2023-03-23T09:31:40;100229.31;;;15.42;100.00
42105;BME280;68365;51.472;5.712;2023-03-23T09:34:07;100226.72;;;15.35;100.00
42105;BME280;68365;51.472;5.712;2023-03-23T09:36:36;100229.56;;;15.40;100.00
42105;BME280;68365;51.472;5.712;2023-03-23T09:39:07;100233.16;;;15.39;100.00
42105;BME280;68365;51.472;5.712;2023-03-23T09:41:39;100227.13;;;15.39;100.00
42105;BME280;68365;51.472;5.712;2023-03-23T09:50:16;100228.94;;;15.38;100.00
42105;BME280;68365;51.472;5.712;2023-03-23T09:52:56;100225.91;;;15.41;100.00
42105;BME280;68365;51.472;5.712;2023-03-23T09:55:22;100232.38;;;15.39;100.00
42105;BME280;68365;51.472;5.712;2023-03-23T09:57:59;100219.88;;;15.41;100.00
42105;BME280;68365;51.472;5.712;2023-03-23T10:00:41;100235.56;;;15.47;100.00
42105;BME280;68365;51.472;5.712;2023-03-23T10:03:24;100233.75;;;15.55;100.00
42105;BME280;68365;51.472;5.712;2023-03-23T10:05:54;100230.13;;;15.56;100.00
42105;BME280;68365;51.472;5.712;2023-03-23T10:08:29;100231.53;;;15.52;100.00
42105;BME280;68365;51.472;5.712;2023-03-23T10:14:15;100228.09;;;15.58;100.00
42105;BME280;68365;51.472;5.712;2023-03-23T10:17:23;100234.72;;;15.60;100.00
42105;BME280;68365;51.472;5.712;2023-03-23T10:26:06;100241.19;;;15.58;100.00
42105;BME280;68365;51.472;5.712;2023-03-23T10:28:44;100236.97;;;15.23;100.00
42105;BME280;68365;51.472;5.712;2023-03-23T10:31:17;100251.28;;;15.41;100.00
42105;BME280;68365;51.472;5.712;2023-03-23T10:33:48;100237.38;;;15.47;100.00
42105;BME280;68365;51.472;5.712;2023-03-23T10:36:30;100231.13;;;15.48;100.00
42105;BME280;68365;51.472;5.712;2023-03-23T10:39:15;100248.03;;;15.52;100.00
42105;BME280;68365;51.472;5.712;2023-03-23T10:41:44;100252.25;;;15.60;100.00
42105;BME280;68365;51.472;5.712;2023-03-23T10:44:18;100249.84;;;15.58;100.00
42105;BME280;68365;51.472;5.712;2023-03-23T10:47:16;100244.81;;;15.63;100.00
42105;BME280;68365;51.472;5.712;2023-03-23T10:49:54;100239.16;;;15.60;100.00
42105;BME280;68365;51.472;5.712;2023-03-23T10:52:29;100241.38;;;15.69;100.00
42105;BME280;68365;51.472;5.712;2023-03-23T10:55:15;100239.34;;;15.72;100.00
42105;BME280;68365;51.472;5.712;2023-03-23T10:57:45;100227.47;;;15.62;100.00
42105;BME280;68365;51.472;5.712;2023-03-23T11:00:19;100242.41;;;15.75;100.00
42105;BME280;68365;51.472;5.712;2023-03-23T11:03:32;100237.97;;;15.76;100.00
42105;BME280;68365;51.472;5.712;2023-03-23T11:06:09;100241.19;;;15.78;100.00
42105;BME280;68365;51.472;5.712;2023-03-23T11:11:30;100242.41;;;15.75;100.00
42105;BME280;68365;51.472;5.712;2023-03-23T11:14:11;100237.16;;;15.75;100.00
42105;BME280;68365;51.472;5.712;2023-03-23T11:16:45;100234.94;;;15.79;100.00
42105;BME280;68365;51.472;5.712;2023-03-23T11:19:23;100235.16;;;15.77;100.00
42105;BME280;68365;51.472;5.712;2023-03-23T11:21:59;100244.41;;;15.80;100.00
42105;BME280;68365;51.472;5.712;2023-03-23T11:24:26;100251.81;;;15.83;100.00
42105;BME280;68365;51.472;5.712;2023-03-23T11:26:53;100250.22;;;15.82;100.00
42105;BME280;68365;51.472;5.712;2023-03-23T11:29:26;100248.59;;;15.81;100.00
42105;BME280;68365;51.472;5.712;2023-03-23T11:32:14;100251.44;;;15.79;100.00
42105;BME280;68365;51.472;5.712;2023-03-23T11:34:48;100245.63;;;15.77;100.00
42105;BME280;68365;51.472;5.712;2023-03-23T11:42:48;100258.28;;;15.80;100.00
42105;BME280;68365;51.472;5.712;2023-03-23T11:48:10;100257.66;;;15.92;100.00
42105;BME280;68365;51.472;5.712;2023-03-23T11:54:00;100252.78;;;15.95;100.00
42105;BME280;68365;51.472;5.712;2023-03-23T11:56:37;100267.72;;;15.95;100.00
42105;BME280;68365;51.472;5.712;2023-03-23T11:59:15;100272.31;;;15.99;100.00
42105;BME280;68365;51.472;5.712;2023-03-23T12:04:48;100256.00;;;16.04;100.00
42105;BME280;68365;51.472;5.712;2023-03-23T12:10:34;100253.41;;;16.04;100.00
42105;BME280;68365;51.472;5.712;2023-03-23T12:14:20;100244.31;;;16.06;100.00
42105;BME280;68365;51.472;5.712;2023-03-23T12:16:33;100236.25;;;16.01;100.00
42105;BME280;68365;51.472;5.712;2023-03-23T12:22:32;100234.47;;;16.02;100.00
42105;BME280;68365;51.472;5.712;2023-03-23T12:31:11;100244.31;;;16.06;100.00
42105;BME280;68365;51.472;5.712;2023-03-23T12:37:11;100245.13;;;16.07;100.00
42105;BME280;68365;51.472;5.712;2023-03-23T12:43:08;100226.78;;;16.07;100.00
42105;BME280;68365;51.472;5.712;2023-03-23T12:48:51;100214.66;;;16.19;100.00
42105;BME280;68365;51.472;5.712;2023-03-23T12:51:30;100223.69;;;16.23;100.00
42105;BME280;68365;51.472;5.712;2023-03-23T13:02:54;100185.25;;;16.17;100.00
42105;BME280;68365;51.472;5.712;2023-03-23T13:10:41;100199.13;;;16.18;100.00
42105;BME280;68365;51.472;5.712;2023-03-23T13:13:22;100213.81;;;16.25;100.00
42105;BME280;68365;51.472;5.712;2023-03-23T13:16:12;100217.22;;;16.26;100.00
42105;BME280;68365;51.472;5.712;2023-03-23T13:22:03;100209.41;;;16.19;100.00
42105;BME280;68365;51.472;5.712;2023-03-23T13:24:37;100204.97;;;16.20;100.00
42105;BME280;68365;51.472;5.712;2023-03-23T13:27:08;100207.00;;;16.18;100.00
42105;BME280;68365;51.472;5.712;2023-03-23T13:29:45;100195.72;;;16.17;100.00
42105;BME280;68365;51.472;5.712;2023-03-23T13:32:18;100205.41;;;16.17;100.00
42105;BME280;68365;51.472;5.712;2023-03-23T13:34:47;100199.13;;;16.18;100.00
42105;BME280;68365;51.472;5.712;2023-03-23T13:37:24;100202.78;;;16.17;100.00
42105;BME280;68365;51.472;5.712;2023-03-23T13:39:56;100198.97;;;16.13;100.00
42105;BME280;68365;51.472;5.712;2023-03-23T13:42:26;100200.22;;;16.10;100.00
42105;BME280;68365;51.472;5.712;2023-03-23T13:47:26;100190.91;;;16.14;100.00
42105;BME280;68365;51.472;5.712;2023-03-23T13:56:02;100166.38;;;16.08;100.00
42105;BME280;68365;51.472;5.712;2023-03-23T13:58:29;100170.59;;;16.09;100.00
42105;BME280;68365;51.472;5.712;2023-03-23T14:01:18;100168.00;;;16.03;100.00
42105;BME280;68365;51.472;5.712;2023-03-23T14:03:49;100173.25;;;16.03;100.00
42105;BME280;68365;51.472;5.712;2023-03-23T14:06:22;100171.66;;;16.02;100.00
42105;BME280;68365;51.472;5.712;2023-03-23T14:08:54;100186.13;;;16.04;100.00
42105;BME280;68365;51.472;5.712;2023-03-23T14:11:27;100168.63;;;15.98;100.00
42105;BME280;68365;51.472;5.712;2023-03-23T14:14:06;100178.66;;;16.01;100.00
42105;BME280;68365;51.472;5.712;2023-03-23T14:19:04;100211.31;;;15.99;100.00
42105;BME280;68365;51.472;5.712;2023-03-23T14:21:42;100245.16;;;16.00;100.00
42105;BME280;68365;51.472;5.712;2023-03-23T14:24:23;100204.69;;;15.96;100.00
42105;BME280;68365;51.472;5.712;2023-03-23T14:26:52;100211.75;;;15.96;100.00
42105;BME280;68365;51.472;5.712;2023-03-23T14:29:20;100185.34;;;15.97;100.00
42105;BME280;68365;51.472;5.712;2023-03-23T14:31:56;100203.06;;;16.02;100.00
42105;BME280;68365;51.472;5.712;2023-03-23T14:34:26;100201.63;;;16.06;100.00
42105;BME280;68365;51.472;5.712;2023-03-23T14:36:56;100187.13;;;16.03;100.00
42105;BME280;68365;51.472;5.712;2023-03-23T14:39:36;100177.47;;;16.04;100.00
42105;BME280;68365;51.472;5.712;2023-03-23T14:42:14;100160.16;;;16.03;100.00